Time;durP1;ratioP1;P1;durP2;ratioP2;P2;SDS_P1;SDS_P2;PMS_P1;PMS_P2;Temp;Humidity;BMP_temperature;BMP_pressure;BME280_temperature;BME280_humidity;BME280_pressure;Samples;Min_cycle;Max_cycle;Signal;HPM_P1;HPM_P2
2022/05/05 00:00:38;;;;;;;1999.90;999.90;;;;;;;14.80;70.93;95489.50;5027590;28;20026;-68
2022/05/05 00:03:04;;;;;;;1999.90;999.90;;;;;;;14.95;70.86;95508.84;5027249;28;20497;-67
2022/05/05 00:05:29;;;;;;;1999.90;999.90;;;;;;;14.59;71.14;95450.38;5010872;28;20104;-68
2022/05/05 00:07:54;;;;;;;1999.90;999.90;;;;;;;14.91;71.12;95489.16;5012048;28;20033;-68
2022/05/05 00:15:48;;;;;;;1999.90;999.90;;;;;;;15.03;71.40;95492.69;5011952;28;20041;-68
2022/05/05 00:18:13;;;;;;;1999.90;999.90;;;;;;;15.04;71.26;95491.59;5011138;28;20042;-68
2022/05/05 00:20:38;;;;;;;1999.90;999.90;;;;;;;14.99;71.24;95488.31;5027101;28;20033;-68
2022/05/05 00:23:04;;;;;;;1999.90;999.90;;;;;;;14.96;71.41;95479.03;5011789;28;20022;-68
2022/05/05 00:25:29;;;;;;;1999.90;999.90;;;;;;;14.91;71.76;95468.50;5011451;28;20129;-70
2022/05/05 00:27:55;;;;;;;1999.90;999.90;;;;;;;15.11;71.19;95495.69;5010770;28;20030;-68
2022/05/05 00:30:20;;;;;;;1999.90;999.90;;;;;;;15.13;71.34;95480.81;5011288;28;20067;-67
2022/05/05 00:32:46;;;;;;;1999.90;999.90;;;;;;;15.26;71.32;95503.16;5011452;28;20383;-67
2022/05/05 00:35:11;;;;;;;1999.90;999.90;;;;;;;15.21;71.37;95492.63;5026570;28;20025;-68
2022/05/05 00:37:37;;;;;;;1999.90;999.90;;;;;;;15.31;70.94;95492.25;5026767;28;20454;-67
2022/05/05 00:40:03;;;;;;;1999.90;999.90;;;;;;;15.29;70.87;95487.19;5026232;28;20022;-68
2022/05/05 00:42:28;;;;;;;1999.90;999.90;;;;;;;15.27;70.53;95480.59;5011196;28;20127;-68
2022/05/05 00:44:54;;;;;;;1999.90;999.90;;;;;;;15.14;70.88;95474.34;5010140;28;20368;-68
2022/05/05 00:47:19;;;;;;;1999.90;999.90;;;;;;;15.29;71.04;95481.03;5026487;28;20037;-68
2022/05/05 00:49:49;;;;;;;1999.90;999.90;;;;;;;15.29;70.84;95473.00;5026077;28;20045;-69
2022/05/05 00:52:14;;;;;;;1999.90;999.90;;;;;;;15.23;70.96;95460.91;5011205;28;20041;-68
2022/05/05 00:54:40;;;;;;;1999.90;999.90;;;;;;;15.22;70.78;95462.81;5011044;28;20463;-67
2022/05/05 00:57:06;;;;;;;1999.90;999.90;;;;;;;15.34;70.84;95492.34;5026364;28;20116;-69
2022/05/05 00:59:33;;;;;;;1999.90;999.90;;;;;;;15.21;70.77;95476.53;5009620;28;20030;-67
2022/05/05 01:01:58;;;;;;;1999.90;999.90;;;;;;;15.20;70.99;95486.47;5026280;28;20030;-68
2022/05/05 01:04:25;;;;;;;1999.90;999.90;;;;;;;15.14;70.84;95478.94;5011008;28;20033;-67
2022/05/05 01:06:50;;;;;;;1999.90;999.90;;;;;;;15.07;70.89;95485.59;5011068;28;20033;-69
2022/05/05 01:09:16;;;;;;;1999.90;999.90;;;;;;;14.91;71.14;95479.22;5010404;28;20386;-67
2022/05/05 01:11:41;;;;;;;1999.90;999.90;;;;;;;14.80;71.16;95470.75;5026066;28;20662;-67
2022/05/05 01:14:06;;;;;;;1999.90;999.90;;;;;;;14.74;71.06;95468.56;5009931;28;20414;-66
2022/05/05 01:16:32;;;;;;;1999.90;999.90;;;;;;;14.69;70.78;95472.25;5010730;28;20033;-69
2022/05/05 01:18:58;;;;;;;1999.90;999.90;;;;;;;14.82;70.88;95479.25;5010388;28;20030;-67
2022/05/05 01:21:23;;;;;;;1999.90;999.90;;;;;;;14.82;70.78;95470.44;5009115;28;20426;-66
2022/05/05 01:23:49;;;;;;;1999.90;999.90;;;;;;;14.89;70.96;95480.63;5010438;28;20028;-67
2022/05/05 01:29:01;;;;;;;1999.90;999.90;;;;;;;14.76;70.85;95483.22;5009603;28;20493;-67
2022/05/05 01:31:26;;;;;;;1999.90;999.90;;;;;;;14.62;70.95;95473.81;5010373;28;20033;-66
2022/05/05 01:33:51;;;;;;;1999.90;999.90;;;;;;;14.54;71.12;95476.22;5010428;28;20190;-68
2022/05/05 01:36:17;;;;;;;1999.90;999.90;;;;;;;14.54;71.36;95478.13;5025381;28;20034;-67
2022/05/05 01:38:44;;;;;;;1999.90;999.90;;;;;;;14.35;71.48;95453.59;5025347;28;20083;-65
2022/05/05 01:41:12;;;;;;;1999.90;999.90;;;;;;;14.42;71.46;95481.41;5010376;28;20064;-67
2022/05/05 01:43:39;;;;;;;1999.90;999.90;;;;;;;14.39;71.01;95492.78;5009503;28;20113;-66
2022/05/05 01:46:06;;;;;;;1999.90;999.90;;;;;;;14.34;71.05;95487.59;5009029;28;20029;-66
2022/05/05 01:48:32;;;;;;;1999.90;999.90;;;;;;;14.30;71.04;95492.00;5009794;28;20030;-67
2022/05/05 01:50:58;;;;;;;1999.90;999.90;;;;;;;14.20;71.36;95478.97;5025477;28;20026;-67
2022/05/05 01:53:24;;;;;;;1999.90;999.90;;;;;;;14.22;71.19;95477.53;5008756;28;20036;-67
2022/05/05 01:55:49;;;;;;;1999.90;999.90;;;;;;;14.20;71.06;95484.31;5010356;28;20436;-67
2022/05/05 01:58:15;;;;;;;1999.90;999.90;;;;;;;13.99;71.49;95457.44;5008213;28;20022;-68
2022/05/05 02:00:40;;;;;;;1999.90;999.90;;;;;;;14.07;71.13;95471.91;5009291;28;20037;-67
2022/05/05 02:03:14;;;;;;;1999.90;999.90;;;;;;;13.96;71.44;95466.88;5009921;28;20053;-67
2022/05/05 02:05:44;;;;;;;1999.90;999.90;;;;;;;14.08;71.33;95487.66;5025079;28;20018;-67
2022/05/05 02:08:11;;;;;;;1999.90;999.90;;;;;;;13.98;71.26;95475.38;5009993;28;20081;-66
2022/05/05 02:10:37;;;;;;;1999.90;999.90;;;;;;;13.98;71.16;95486.09;5010340;28;20459;-67
2022/05/05 02:13:04;;;;;;;1999.90;999.90;;;;;;;13.99;71.35;95486.88;5009926;28;20026;-66
2022/05/05 02:15:29;;;;;;;1999.90;999.90;;;;;;;13.88;71.20;95481.06;5009000;28;20080;-67
2022/05/05 02:17:55;;;;;;;1999.90;999.90;;;;;;;13.87;71.31;95479.50;5009568;28;20053;-67
2022/05/05 02:20:20;;;;;;;1999.90;999.90;;;;;;;13.81;71.29;95474.59;5009160;28;20038;-67
2022/05/05 02:22:45;;;;;;;1999.90;999.90;;;;;;;13.88;71.42;95489.09;5009919;28;20026;-66
2022/05/05 02:25:11;;;;;;;1999.90;999.90;;;;;;;13.73;70.29;95500.25;5009710;28;20037;-66
2022/05/05 02:27:50;;;;;;;1999.90;999.90;;;;;;;13.68;71.54;95484.38;5009853;28;20079;-67
2022/05/05 02:30:18;;;;;;;1999.90;999.90;;;;;;;13.73;71.50;95490.34;5023946;28;20084;-66
2022/05/05 02:32:43;;;;;;;1999.90;999.90;;;;;;;13.57;71.31;95467.88;5024802;28;20456;-67
2022/05/05 02:35:09;;;;;;;1999.90;999.90;;;;;;;13.74;71.45;95496.47;5009649;28;20022;-66
2022/05/05 02:40:18;;;;;;;1999.90;999.90;;;;;;;13.81;71.98;95486.09;5009292;28;20037;-66
2022/05/05 02:42:44;;;;;;;1999.90;999.90;;;;;;;13.97;71.79;95491.72;5009085;28;20034;-66
2022/05/05 02:45:09;;;;;;;1999.90;999.90;;;;;;;13.99;71.82;95476.97;5024170;28;20064;-67
2022/05/05 02:47:35;;;;;;;1999.90;999.90;;;;;;;14.13;71.54;95476.00;5009646;28;20050;-66
2022/05/05 02:50:00;;;;;;;1999.90;999.90;;;;;;;14.16;71.12;95475.34;5024699;28;20022;-67
2022/05/05 02:52:26;;;;;;;1999.90;999.90;;;;;;;14.26;71.24;95486.50;5024885;28;20056;-66
2022/05/05 02:54:51;;;;;;;1999.90;999.90;;;;;;;14.15;71.19;95477.25;5009536;28;20450;-67
2022/05/05 02:57:18;;;;;;;1999.90;999.90;;;;;;;14.19;70.51;95491.56;5009501;28;20129;-67
2022/05/05 02:59:44;;;;;;;1999.90;999.90;;;;;;;13.96;70.62;95468.78;5022736;28;20030;-67
2022/05/05 03:02:09;;;;;;;1999.90;999.90;;;;;;;14.00;70.84;95489.22;5025258;28;20018;-67
2022/05/05 03:04:35;;;;;;;1999.90;999.90;;;;;;;13.73;70.67;95458.25;5025026;28;20036;-68
2022/05/05 03:07:01;;;;;;;1999.90;999.90;;;;;;;13.90;70.50;95494.88;5025086;28;20022;-67
2022/05/05 03:09:26;;;;;;;1999.90;999.90;;;;;;;13.75;70.50;95498.81;5027073;28;20034;-67
2022/05/05 03:11:52;;;;;;;1999.90;999.90;;;;;;;13.60;70.88;95482.47;5013309;28;20021;-65
2022/05/05 03:14:17;;;;;;;1999.90;999.90;;;;;;;13.70;70.80;95509.69;5026751;28;20036;-66
2022/05/05 03:16:43;;;;;;;1999.90;999.90;;;;;;;13.50;70.98;95483.56;5028099;28;20025;-65
2022/05/05 03:19:08;;;;;;;1999.90;999.90;;;;;;;13.42;70.81;95481.69;5027549;28;20026;-64
2022/05/05 03:21:33;;;;;;;1999.90;999.90;;;;;;;13.39;70.34;95491.09;5012550;28;20106;-65
2022/05/05 03:23:59;;;;;;;1999.90;999.90;;;;;;;12.97;70.03;95484.56;5012875;28;20030;-65
2022/05/05 03:26:24;;;;;;;1999.90;999.90;;;;;;;13.04;70.73;95498.22;5011556;28;20026;-65
2022/05/05 03:28:50;;;;;;;1999.90;999.90;;;;;;;13.22;71.57;95507.13;5012458;28;20038;-66
2022/05/05 03:31:15;;;;;;;1999.90;999.90;;;;;;;13.32;71.23;95511.38;5010564;28;20026;-66
2022/05/05 03:33:40;;;;;;;1999.90;999.90;;;;;;;13.26;71.81;95508.06;5012863;28;20129;-64
2022/05/05 03:36:06;;;;;;;1999.90;999.90;;;;;;;13.44;71.74;95503.53;5012815;28;20036;-65
2022/05/05 03:38:32;;;;;;;1999.90;999.90;;;;;;;13.58;71.69;95493.47;5027633;28;20490;-65
2022/05/05 03:40:57;;;;;;;1999.90;999.90;;;;;;;13.75;70.80;95511.41;5012602;28;20092;-65
2022/05/05 03:43:23;;;;;;;1999.90;999.90;;;;;;;13.81;70.90;95496.00;5027410;28;20033;-65
2022/05/05 03:45:48;;;;;;;1999.90;999.90;;;;;;;13.91;71.01;95501.81;5026896;28;20018;-64
2022/05/05 03:48:13;;;;;;;1999.90;999.90;;;;;;;13.89;70.82;95490.66;5011981;28;20490;-64
2022/05/05 03:50:39;;;;;;;1999.90;999.90;;;;;;;14.03;70.61;95511.88;5004881;28;20433;-66
2022/05/05 03:53:05;;;;;;;1999.90;999.90;;;;;;;13.17;70.44;95376.34;5012378;28;20128;-66
2022/05/05 03:55:31;;;;;;;1999.90;999.90;;;;;;;14.02;70.46;95503.06;5010103;28;20033;-65
2022/05/05 03:57:56;;;;;;;1999.90;999.90;;;;;;;14.01;70.26;95496.13;4991217;28;20022;-66
2022/05/05 04:00:23;;;;;;;1999.90;999.90;;;;;;;14.06;70.48;95508.56;5006266;28;20596;-66
2022/05/05 04:03:30;;;;;;;1999.90;999.90;;;;;;;14.11;70.49;95518.31;5012923;28;20057;-66
2022/05/05 04:05:38;;;;;;;1999.90;999.90;;;;;;;14.12;70.69;95506.50;5012695;28;20406;-66
2022/05/05 04:08:04;;;;;;;1999.90;999.90;;;;;;;14.10;70.61;95508.72;5012201;28;20022;-66
2022/05/05 04:10:31;;;;;;;1999.90;999.90;;;;;;;14.18;70.62;95515.97;5027616;28;20033;-66
2022/05/05 04:12:56;;;;;;;1999.90;999.90;;;;;;;14.20;70.35;95509.19;5027842;28;20128;-66
2022/05/05 04:15:22;;;;;;;1999.90;999.90;;;;;;;14.32;70.75;95514.66;5010839;28;20033;-67
2022/05/05 04:17:48;;;;;;;1999.90;999.90;;;;;;;14.48;70.37;95519.53;5012646;28;20386;-66
2022/05/05 04:20:13;;;;;;;1999.90;999.90;;;;;;;14.42;70.43;95505.50;5011527;28;20125;-66
2022/05/05 04:22:39;;;;;;;1999.90;999.90;;;;;;;14.61;70.12;95531.16;5012635;28;20026;-67
2022/05/05 04:25:05;;;;;;;1999.90;999.90;;;;;;;14.64;70.41;95523.28;5012511;28;20030;-66
2022/05/05 04:27:32;;;;;;;1999.90;999.90;;;;;;;14.80;70.40;95523.53;5011055;28;20036;-67
2022/05/05 04:29:58;;;;;;;1999.90;999.90;;;;;;;14.98;70.00;95521.56;5018457;28;20102;-65
2022/05/05 04:32:23;;;;;;;1999.90;999.90;;;;;;;15.16;69.90;95539.16;5012148;28;20446;-68
2022/05/05 04:34:49;;;;;;;1999.90;999.90;;;;;;;15.24;69.87;95522.22;5027265;28;20541;-66
2022/05/05 04:37:14;;;;;;;1999.90;999.90;;;;;;;15.37;69.69;95523.09;5027020;28;20026;-65
2022/05/05 04:39:42;;;;;;;1999.90;999.90;;;;;;;15.56;69.33;95499.34;5027388;28;20426;-66
2022/05/05 04:42:08;;;;;;;1999.90;999.90;;;;;;;15.91;69.45;95531.25;5027404;28;20443;-66
2022/05/05 04:44:34;;;;;;;1999.90;999.90;;;;;;;15.84;69.31;95510.34;5011129;28;20030;-66
2022/05/05 04:47:00;;;;;;;1999.90;999.90;;;;;;;16.01;69.15;95532.75;5011298;28;20037;-66
2022/05/05 04:49:25;;;;;;;1999.90;999.90;;;;;;;15.95;69.05;95521.44;5011547;28;20382;-67
2022/05/05 04:51:51;;;;;;;1999.90;999.90;;;;;;;16.02;68.75;95539.69;5012018;28;20109;-65
2022/05/05 04:54:16;;;;;;;1999.90;999.90;;;;;;;16.02;69.04;95521.72;5012128;28;20077;-66
2022/05/05 04:56:41;;;;;;;1999.90;999.90;;;;;;;15.56;68.60;95466.38;5011763;28;20032;-66
2022/05/05 04:59:07;;;;;;;1999.90;999.90;;;;;;;15.96;68.76;95528.38;5010719;28;20386;-66
2022/05/05 05:01:32;;;;;;;1999.90;999.90;;;;;;;15.80;68.99;95514.78;5010711;28;20688;-66
2022/05/05 05:03:57;;;;;;;1999.90;999.90;;;;;;;15.58;68.85;95489.06;5011698;28;20034;-65
2022/05/05 05:06:23;;;;;;;1999.90;999.90;;;;;;;15.57;69.21;95495.53;5011657;28;20437;-67
2022/05/05 05:08:48;;;;;;;1999.90;999.90;;;;;;;15.69;68.79;95528.91;5011151;28;20026;-66
2022/05/05 05:11:14;;;;;;;1999.90;999.90;;;;;;;15.54;69.15;95514.94;5011487;28;20030;-66
2022/05/05 05:13:39;;;;;;;1999.90;999.90;;;;;;;15.66;68.88;95537.59;5011747;28;20461;-65
2022/05/05 05:16:05;;;;;;;1999.90;999.90;;;;;;;15.54;69.09;95527.56;5009909;28;20042;-65
2022/05/05 05:18:31;;;;;;;1999.90;999.90;;;;;;;15.53;69.09;95537.50;5011219;28;20030;-66
2022/05/05 05:20:56;;;;;;;1999.90;999.90;;;;;;;15.70;69.18;95542.00;5011270;28;20379;-67
2022/05/05 05:23:22;;;;;;;1999.90;999.90;;;;;;;15.75;69.10;95528.38;5011123;28;20022;-67
2022/05/05 05:25:48;;;;;;;1999.90;999.90;;;;;;;15.97;69.38;95547.94;5011570;28;20449;-68
2022/05/05 05:28:14;;;;;;;1999.90;999.90;;;;;;;16.07;69.05;95553.72;5009613;28;20017;-67
2022/05/05 05:30:40;;;;;;;1999.90;999.90;;;;;;;16.11;69.39;95529.69;5018924;28;20359;-66
2022/05/05 05:33:06;;;;;;;1999.90;999.90;;;;;;;16.32;69.03;95535.78;5010112;28;20033;-67
2022/05/05 05:35:32;;;;;;;1999.90;999.90;;;;;;;16.40;69.15;95528.00;5010918;28;20034;-67
2022/05/05 05:37:58;;;;;;;1999.90;999.90;;;;;;;16.42;69.43;95515.81;5009539;28;20045;-67
2022/05/05 05:40:23;;;;;;;1999.90;999.90;;;;;;;16.67;69.33;95540.81;5011277;28;20026;-68
2022/05/05 05:42:49;;;;;;;1999.90;999.90;;;;;;;16.74;69.26;95533.03;5010730;28;20026;-66
2022/05/05 05:45:14;;;;;;;1999.90;999.90;;;;;;;16.84;69.23;95546.06;5009996;28;20048;-67
2022/05/05 05:47:40;;;;;;;1999.90;999.90;;;;;;;16.85;69.37;95526.13;5010409;28;20049;-67
2022/05/05 05:50:05;;;;;;;1999.90;999.90;;;;;;;17.02;69.35;95529.72;5010396;28;20026;-68
2022/05/05 05:52:31;;;;;;;1999.90;999.90;;;;;;;17.23;69.38;95541.13;5010902;28;20026;-68
2022/05/05 05:54:56;;;;;;;1999.90;999.90;;;;;;;17.45;69.26;95555.25;5009323;28;20029;-68
2022/05/05 05:57:21;;;;;;;1999.90;999.90;;;;;;;17.40;68.08;95546.31;5010819;28;20018;-68
2022/05/05 05:59:47;;;;;;;1999.90;999.90;;;;;;;16.71;66.97;95560.56;5009509;28;20048;-68
2022/05/05 06:04:56;;;;;;;1999.90;999.90;;;;;;;15.29;69.29;95556.88;5010768;28;20092;-68
2022/05/05 06:07:21;;;;;;;1999.90;999.90;;;;;;;15.14;70.31;95575.38;5010539;28;20021;-67
2022/05/05 06:09:47;;;;;;;1999.90;999.90;;;;;;;15.35;70.21;95573.56;5010183;28;20033;-68
2022/05/05 06:12:13;;;;;;;1999.90;999.90;;;;;;;14.79;70.79;95559.44;5010664;28;20386;-68
2022/05/05 06:14:38;;;;;;;1999.90;999.90;;;;;;;14.42;72.72;95561.72;5010334;28;20029;-68
2022/05/05 06:17:04;;;;;;;1999.90;999.90;;;;;;;14.86;71.92;95567.00;5024416;28;20036;-68
2022/05/05 06:19:29;;;;;;;1999.90;999.90;;;;;;;14.73;72.54;95568.75;5010181;28;20529;-72
2022/05/05 06:21:55;;;;;;;1999.90;999.90;;;;;;;14.69;72.99;95543.72;5010315;28;20490;-69
2022/05/05 06:24:21;;;;;;;1999.90;999.90;;;;;;;15.48;71.21;95550.31;5025869;28;20033;-69
2022/05/05 06:26:47;;;;;;;1999.90;999.90;;;;;;;15.62;71.68;95553.53;5010219;28;20018;-62
2022/05/05 06:29:12;;;;;;;1999.90;999.90;;;;;;;15.88;70.60;95544.56;5010157;28;20025;-65
2022/05/05 06:31:38;;;;;;;1999.90;999.90;;;;;;;16.56;70.19;95539.69;5006477;28;20482;-65
2022/05/05 06:34:03;;;;;;;1999.90;999.90;;;;;;;15.82;69.71;95533.25;5010452;28;20113;-66
2022/05/05 06:36:29;;;;;;;1999.90;999.90;;;;;;;16.15;68.76;95552.06;5010153;28;20033;-66
2022/05/05 06:38:55;;;;;;;1999.90;999.90;;;;;;;16.80;69.75;95555.09;5009973;28;20030;-64
2022/05/05 06:41:20;;;;;;;1999.90;999.90;;;;;;;16.00;69.53;95531.19;5010219;28;20056;-63
2022/05/05 06:43:46;;;;;;;1999.90;999.90;;;;;;;16.98;68.33;95561.06;5012231;28;20058;-66
2022/05/05 06:46:12;;;;;;;1999.90;999.90;;;;;;;17.06;69.06;95558.28;5022540;28;20037;-66
2022/05/05 06:48:37;;;;;;;1999.90;999.90;;;;;;;16.06;67.40;95568.22;5013824;28;20026;-66
2022/05/05 06:51:03;;;;;;;1999.90;999.90;;;;;;;15.60;70.34;95580.66;5014147;28;20030;-66
2022/05/05 06:53:28;;;;;;;1999.90;999.90;;;;;;;15.95;69.79;95587.75;5012899;28;20049;-66
2022/05/05 06:55:57;;;;;;;1999.90;999.90;;;;;;;15.65;71.19;95582.41;5028410;28;20030;-68
2022/05/05 06:58:23;;;;;;;1999.90;999.90;;;;;;;15.76;70.49;95588.97;5012437;28;20401;-65
2022/05/05 07:03:33;;;;;;;1999.90;999.90;;;;;;;16.46;70.38;95589.22;5013789;28;20041;-66
2022/05/05 07:05:58;;;;;;;1999.90;999.90;;;;;;;16.75;69.00;95572.22;5013755;28;20038;-67
2022/05/05 07:08:23;;;;;;;1999.90;999.90;;;;;;;17.05;68.88;95562.09;5013360;28;20022;-66
2022/05/05 07:10:55;;;;;;;1999.90;999.90;;;;;;;17.22;69.55;95577.22;5012280;28;20026;-66
2022/05/05 07:13:24;;;;;;;1999.90;999.90;;;;;;;17.16;68.52;95592.00;5012515;28;20470;-66
2022/05/05 07:15:50;;;;;;;1999.90;999.90;;;;;;;17.20;68.63;95597.47;5011462;28;20042;-69
2022/05/05 07:18:16;;;;;;;1999.90;999.90;;;;;;;17.44;68.43;95578.66;5010121;28;20324;-66
2022/05/05 07:20:43;;;;;;;1999.90;999.90;;;;;;;16.48;68.38;95580.81;5010918;28;20026;-68
2022/05/05 07:23:12;;;;;;;1999.90;999.90;;;;;;;16.28;67.75;95602.00;5016650;28;20030;-70
2022/05/05 07:25:39;;;;;;;1999.90;999.90;;;;;;;17.11;69.19;95601.06;5020109;28;20026;-66
2022/05/05 07:28:05;;;;;;;1999.90;999.90;;;;;;;18.24;68.51;95604.94;5028208;28;20022;-67
2022/05/05 07:30:30;;;;;;;1999.90;999.90;;;;;;;19.13;68.00;95604.66;5030169;28;20040;-68
2022/05/05 07:32:56;;;;;;;1999.90;999.90;;;;;;;19.99;67.47;95614.78;5017704;28;20029;-66
2022/05/05 07:35:21;;;;;;;1999.90;999.90;;;;;;;18.90;63.30;95617.94;5027766;28;20088;-67
2022/05/05 07:37:47;;;;;;;1999.90;999.90;;;;;;;18.62;62.66;95601.75;5016420;28;20033;-67
2022/05/05 07:40:12;;;;;;;1999.90;999.90;;;;;;;17.48;63.89;95625.28;5032568;28;20064;-69
2022/05/05 07:42:38;;;;;;;1999.90;999.90;;;;;;;18.81;65.48;95614.59;5026473;28;20026;-66
2022/05/05 07:45:04;;;;;;;1999.90;999.90;;;;;;;18.80;64.03;95620.34;5041174;28;20037;-67
2022/05/05 07:47:30;;;;;;;1999.90;999.90;;;;;;;19.70;62.51;95618.75;5015637;28;20084;-68
2022/05/05 07:49:55;;;;;;;1999.90;999.90;;;;;;;19.42;63.48;95618.84;5028166;28;20030;-67
2022/05/05 07:52:20;;;;;;;1999.90;999.90;;;;;;;19.36;62.82;95617.53;5013160;28;20575;-66
2022/05/05 07:54:46;;;;;;;1999.90;999.90;;;;;;;19.84;63.35;95626.41;5036539;28;20033;-67
2022/05/05 07:57:13;;;;;;;1999.90;999.90;;;;;;;18.89;58.06;95627.16;5027736;28;20213;-68
2022/05/05 07:59:40;;;;;;;1999.90;999.90;;;;;;;19.25;63.95;95624.59;5024252;28;20532;-68
2022/05/05 08:02:13;;;;;;;1999.90;999.90;;;;;;;20.37;65.29;95614.06;5008650;28;20422;-68
2022/05/05 08:04:38;;;;;;;1999.90;999.90;;;;;;;17.82;55.17;95617.91;4999720;28;20057;-66
2022/05/05 08:07:04;;;;;;;1999.90;999.90;;;;;;;17.80;60.41;95609.38;5027995;28;20017;-67
2022/05/05 08:09:29;;;;;;;1999.90;999.90;;;;;;;18.56;60.31;95621.19;5008722;28;20021;-67
2022/05/05 08:11:54;;;;;;;1999.90;999.90;;;;;;;17.76;63.67;95625.44;5022271;28;20113;-66
2022/05/05 08:14:20;;;;;;;1999.90;999.90;;;;;;;18.90;64.54;95623.31;5014562;28;20036;-68
2022/05/05 08:16:45;;;;;;;1999.90;999.90;;;;;;;19.19;60.10;95632.13;5017844;28;20028;-68
2022/05/05 08:19:11;;;;;;;1999.90;999.90;;;;;;;18.23;57.61;95611.44;5027777;28;20026;-67
2022/05/05 08:21:36;;;;;;;1999.90;999.90;;;;;;;18.57;63.98;95634.31;5023842;28;20629;-67
2022/05/05 08:29:29;;;;;;;1999.90;999.90;;;;;;;19.39;60.49;95633.03;5004884;28;20032;-68
2022/05/05 08:31:55;;;;;;;1999.90;999.90;;;;;;;18.45;60.65;95619.00;5035415;28;20025;-68
2022/05/05 08:34:21;;;;;;;1999.90;999.90;;;;;;;17.97;57.37;95629.91;5022056;28;20025;-68
2022/05/05 08:36:46;;;;;;;1999.90;999.90;;;;;;;17.52;62.59;95636.16;5032013;28;20366;-66
2022/05/05 08:39:12;;;;;;;1999.90;999.90;;;;;;;17.60;59.77;95633.34;5044972;28;20034;-67
2022/05/05 08:41:40;;;;;;;1999.90;999.90;;;;;;;17.75;55.10;95631.13;5031698;28;20037;-68
2022/05/05 08:44:07;;;;;;;1999.90;999.90;;;;;;;19.09;61.50;95644.25;5029738;28;20104;-66
2022/05/05 08:46:34;;;;;;;1999.90;999.90;;;;;;;18.07;55.96;95643.69;5030710;28;20393;-67
2022/05/05 08:49:05;;;;;;;1999.90;999.90;;;;;;;18.57;57.85;95644.31;5025818;28;20029;-68
2022/05/05 08:51:42;;;;;;;1999.90;999.90;;;;;;;18.93;55.96;95641.50;5026667;28;20029;-67
2022/05/05 08:54:21;;;;;;;1999.90;999.90;;;;;;;18.95;50.72;95644.63;5033514;28;20164;-66
2022/05/05 08:56:48;;;;;;;1999.90;999.90;;;;;;;19.85;63.15;95644.16;5014351;28;20124;-67
2022/05/05 08:59:14;;;;;;;1999.90;999.90;;;;;;;21.12;65.06;95631.72;5010622;28;20026;-68
2022/05/05 09:01:40;;;;;;;1999.90;999.90;;;;;;;22.05;64.30;95634.03;5016262;28;20124;-68
2022/05/05 09:04:07;;;;;;;1999.90;999.90;;;;;;;22.69;63.72;95631.41;5030919;28;20165;-67
2022/05/05 09:06:50;;;;;;;1999.90;999.90;;;;;;;23.24;62.70;95631.66;5009192;28;20126;-68
2022/05/05 09:09:27;;;;;;;1999.90;999.90;;;;;;;23.36;54.38;95638.72;5010197;28;20033;-68
2022/05/05 09:12:09;;;;;;;1999.90;999.90;;;;;;;23.00;54.14;95640.31;5011090;28;20032;-68
2022/05/05 09:14:39;;;;;;;1999.90;999.90;;;;;;;22.56;57.86;95640.91;5011347;28;20113;-68
2022/05/05 09:17:10;;;;;;;1999.90;999.90;;;;;;;23.51;60.59;95632.25;5011233;28;20107;-68
2022/05/05 09:19:42;;;;;;;1999.90;999.90;;;;;;;24.21;59.23;95638.63;5025224;28;20489;-68
2022/05/05 09:22:09;;;;;;;1999.90;999.90;;;;;;;24.76;59.84;95635.78;5011705;28;20406;-68
2022/05/05 09:24:35;;;;;;;1999.90;999.90;;;;;;;25.30;60.19;95631.31;5026428;28;20033;-69
2022/05/05 09:27:29;;;;;;;1999.90;999.90;;;;;;;25.16;57.68;95628.53;5011562;28;20041;-69
2022/05/05 09:30:02;;;;;;;1999.90;999.90;;;;;;;24.84;56.25;95629.22;5027867;28;20033;-69
2022/05/05 09:32:30;;;;;;;1999.90;999.90;;;;;;;24.50;53.87;95628.69;5029967;28;20030;-67
2022/05/05 09:35:02;;;;;;;1999.90;999.90;;;;;;;24.74;55.68;95629.19;5008929;28;20042;-69
2022/05/05 09:37:28;;;;;;;1999.90;999.90;;;;;;;24.88;54.33;95626.53;5026354;28;20026;-74
2022/05/05 09:39:55;;;;;;;1999.90;999.90;;;;;;;25.05;56.11;95635.88;5026202;28;20033;-71
2022/05/05 09:42:45;;;;;;;1999.90;999.90;;;;;;;24.60;50.05;95627.19;5028910;28;20037;-71
2022/05/05 09:45:24;;;;;;;1999.90;999.90;;;;;;;22.29;47.22;95632.84;5030786;28;20025;-72
2022/05/05 09:47:55;;;;;;;1999.90;999.90;;;;;;;22.25;50.27;95620.38;5021334;28;20036;-71
2022/05/05 09:50:22;;;;;;;1999.90;999.90;;;;;;;21.88;47.16;95631.06;5025826;28;20033;-70
2022/05/05 09:58:26;;;;;;;1999.90;999.90;;;;;;;22.22;56.24;95634.69;5010418;28;20045;-66
2022/05/05 10:01:00;;;;;;;1999.90;999.90;;;;;;;22.00;41.74;95636.28;5017617;28;20064;-68
2022/05/05 10:04:00;;;;;;;1999.90;999.90;;;;;;;21.42;40.89;95623.00;5023674;28;20029;-67
2022/05/05 10:06:55;;;;;;;1999.90;999.90;;;;;;;21.02;41.28;95635.03;5026793;28;20026;-67
2022/05/05 10:09:23;;;;;;;1999.90;999.90;;;;;;;21.88;40.94;95639.19;5027104;28;20050;-66
2022/05/05 10:11:49;;;;;;;1999.90;999.90;;;;;;;21.59;43.60;95635.25;5030298;28;20034;-67
2022/05/05 10:14:16;;;;;;;1999.90;999.90;;;;;;;21.94;49.39;95626.91;5029827;28;20029;-67
2022/05/05 10:16:42;;;;;;;1999.90;999.90;;;;;;;22.37;40.53;95624.78;5026267;28;20021;-66
2022/05/05 10:19:09;;;;;;;1999.90;999.90;;;;;;;22.76;49.14;95630.69;5018164;28;20029;-67
2022/05/05 10:22:08;;;;;;;1999.90;999.90;;;;;;;22.26;38.28;95624.66;5026636;28;20032;-67
2022/05/05 10:24:52;;;;;;;1999.90;999.90;;;;;;;22.85;49.33;95612.22;5028072;28;20029;-66
2022/05/05 10:27:32;;;;;;;1999.90;999.90;;;;;;;23.31;50.52;95617.34;5030709;28;20114;-67
2022/05/05 10:30:00;;;;;;;1999.90;999.90;;;;;;;23.38;50.65;95605.75;5043353;28;20076;-67
2022/05/05 10:32:30;;;;;;;1999.90;999.90;;;;;;;23.84;55.24;95609.66;5028146;28;20087;-66
2022/05/05 10:35:17;;;;;;;1999.90;999.90;;;;;;;24.09;52.30;95607.09;5030446;28;20058;-64
2022/05/05 10:37:43;;;;;;;1999.90;999.90;;;;;;;24.03;44.32;95605.13;5030177;28;20025;-64
2022/05/05 10:40:10;;;;;;;1999.90;999.90;;;;;;;24.20;46.19;95609.09;5042944;28;20039;-65
2022/05/05 10:42:41;;;;;;;1999.90;999.90;;;;;;;24.56;52.30;95616.28;5030017;28;20029;-64
2022/05/05 10:45:07;;;;;;;1999.90;999.90;;;;;;;24.13;36.58;95616.06;5019390;28;20382;-64
2022/05/05 10:48:01;;;;;;;1999.90;999.90;;;;;;;24.84;51.69;95610.19;5027427;28;20037;-64
2022/05/05 10:50:30;;;;;;;1999.90;999.90;;;;;;;25.25;53.80;95607.19;5020618;28;20025;-67
2022/05/05 10:52:57;;;;;;;1999.90;999.90;;;;;;;25.62;54.01;95595.13;4989364;28;20030;-68
2022/05/05 10:55:26;;;;;;;1999.90;999.90;;;;;;;25.49;40.52;95597.47;5026544;28;20481;-68
2022/05/05 10:57:52;;;;;;;1999.90;999.90;;;;;;;24.03;41.76;95605.13;5022507;28;20086;-67
2022/05/05 11:00:18;;;;;;;1999.90;999.90;;;;;;;24.58;44.46;95580.56;4998749;28;20036;-66
2022/05/05 11:02:56;;;;;;;1999.90;999.90;;;;;;;22.99;35.64;95595.34;5013613;28;20036;-67
2022/05/05 11:05:38;;;;;;;1999.90;999.90;;;;;;;22.70;38.51;95586.88;5009090;28;20250;-66
2022/05/05 11:08:07;;;;;;;1999.90;999.90;;;;;;;22.99;38.04;95584.50;5011749;28;20048;-67
2022/05/05 11:10:46;;;;;;;1999.90;999.90;;;;;;;23.98;50.57;95589.94;5029828;28;20032;-67
2022/05/05 11:13:40;;;;;;;1999.90;999.90;;;;;;;24.31;49.30;95594.41;5013873;28;20120;-67
2022/05/05 11:22:11;;;;;;;1999.90;999.90;;;;;;;23.64;44.50;95583.13;5008984;28;20522;-71
2022/05/05 11:24:39;;;;;;;1999.90;999.90;;;;;;;24.10;49.88;95577.97;5009683;28;20034;-71
2022/05/05 11:27:10;;;;;;;1999.90;999.90;;;;;;;24.32;45.79;95551.69;5014193;28;20040;-71
2022/05/05 11:29:36;;;;;;;1999.90;999.90;;;;;;;24.51;46.12;95562.25;5007392;28;20148;-72